Hlavní strana
METAR-TAF:

METAR-TAF

Letiště :

Talara, Peru

zeměpisná šířka: 04-34S, zeměpisná délka: 081-15W, výška: 85 m

Aktuální stav počasí

Zpráva byla vytvořena před 17 hodinami a 33 minutami, v 19:00 UTC
Jihozápadní vítr 12 kt
Teplota 31°C
Vlhkost vzduchu 46%
Tlak 1010 hPa
Viditelnost 10 km a více
Žádná oblačnost pod 1500 m, nevyskytují se cumulonimby.

METAR: SPYL 081900Z 22012KT CAVOK 31/18 Q1010 RMK BIRD HAZARD RWY 17/35 PP000

Čas: 07:33 (12:33 UTC)

Předpověď počasí

Zpráva byla vytvořena před 1 hodinou a 33 minutami, v 11:00 UTC
Předpověď platná od 09 v 12 UTC do 10 v 12 UTC
Jihovýchodní vítr 15 kt
Viditelnost 10 km a více
Žádná oblačnost pod 1500 m, nevyskytují se cumulonimby.
Změna
od 09 v 16 UTC do 09 v 18 UTC
Jihojihozápadní vítr 10 kt

TAF: SPYL 091100Z 0912/1012 14015KT CAVOK TX32/0919Z TN20/1011Z BECMG 0916/0918 21010KT

Stav a předpovědi počasí z více než 4 000 letišť (zprávy METAR a TAF).

Červené a žluté tečky na mapě představují dostupné meteorologické stanice.

Když kurzor umístíte na tečku, zobrazí se název stanice.

Pak kliknutím zobrazíte stav a předpověď počasí.

Chcete-li změnit mapu, kliknutím na zelené tlačítko se znaménkem +mapu přiblížíte, kliknutím na zelené tlačítko se znaménkem – mapu oddálíte a kliknutím na zelené šipky přejdete na sousední mapy.


METAR-TAF: